createdAt,value
2023-04-10T00:02:00.696Z,19.65
2023-04-10T00:04:28.368Z,19.73
2023-04-10T00:06:55.540Z,19.63
2023-04-10T00:09:22.151Z,20.42
2023-04-10T00:11:48.689Z,22.08
2023-04-10T00:14:15.321Z,21.20
2023-04-10T00:16:41.988Z,22.27
2023-04-10T00:19:08.800Z,15.90
2023-04-10T00:21:35.278Z,17.27
2023-04-10T00:24:01.859Z,18.23
2023-04-10T00:26:28.384Z,17.15
2023-04-10T00:28:55.293Z,17.43
2023-04-10T00:31:21.913Z,16.65
2023-04-10T00:33:48.471Z,18.05
2023-04-10T00:36:15.048Z,16.83
2023-04-10T00:38:42.099Z,18.42
2023-04-10T00:41:08.631Z,12.40
2023-04-10T00:43:35.478Z,17.75
2023-04-10T00:46:02.063Z,14.18
2023-04-10T00:48:28.889Z,17.58
2023-04-10T00:50:55.527Z,18.30
2023-04-10T00:53:22.105Z,16.03
2023-04-10T00:55:50.048Z,15.20
2023-04-10T00:58:16.653Z,16.15
2023-04-10T01:00:43.192Z,18.40
2023-04-10T01:03:11.660Z,19.38
2023-04-10T01:06:04.553Z,18.87
2023-04-10T01:08:41.511Z,18.83
2023-04-10T01:11:21.172Z,18.48
2023-04-10T01:13:58.520Z,17.42
2023-04-10T01:16:31.232Z,16.70
2023-04-10T01:19:06.111Z,18.17
2023-04-10T01:21:37.269Z,14.82
2023-04-10T01:24:24.560Z,16.38
2023-04-10T01:27:12.072Z,16.92
2023-04-10T01:29:45.376Z,15.38
2023-04-10T01:32:16.816Z,17.43
2023-04-10T01:34:49.745Z,15.98
2023-04-10T01:37:38.136Z,17.65
2023-04-10T01:40:09.246Z,16.90
2023-04-10T01:42:42.349Z,20.50
2023-04-10T01:45:16.210Z,18.47
2023-04-10T01:47:43.333Z,16.77
2023-04-10T01:50:12.049Z,17.85
2023-04-10T01:52:39.996Z,20.30
2023-04-10T01:55:08.141Z,20.38
2023-04-10T01:57:36.452Z,17.00
2023-04-10T02:00:06.874Z,17.05
2023-04-10T02:02:34.293Z,18.10
2023-04-10T02:05:01.355Z,17.83
2023-04-10T02:07:53.857Z,18.83
2023-04-10T02:10:56.879Z,19.80
2023-04-10T02:13:27.734Z,24.70
2023-04-10T02:15:55.891Z,26.38
2023-04-10T02:18:23.936Z,27.23
2023-04-10T02:20:50.668Z,32.88
2023-04-10T02:23:18.049Z,46.10
2023-04-10T02:25:45.004Z,42.65
2023-04-10T02:28:11.596Z,38.22
2023-04-10T02:30:39.264Z,30.10
2023-04-10T02:33:05.979Z,28.63
2023-04-10T02:35:34.027Z,25.03
2023-04-10T02:38:00.837Z,22.25
2023-04-10T02:40:27.369Z,25.23
2023-04-10T02:42:53.892Z,20.98
2023-04-10T02:45:20.310Z,24.33
2023-04-10T02:47:46.973Z,29.23
2023-04-10T02:50:13.700Z,22.05
2023-04-10T02:52:44.209Z,25.05
2023-04-10T02:55:11.308Z,20.70
2023-04-10T02:57:37.817Z,19.95
2023-04-10T03:00:05.295Z,22.43
2023-04-10T03:02:32.053Z,31.50
2023-04-10T03:04:58.737Z,26.92
2023-04-10T03:07:25.335Z,23.52
2023-04-10T03:09:51.816Z,19.90
2023-04-10T03:12:18.486Z,21.33
2023-04-10T03:14:45.031Z,21.23
2023-04-10T03:17:12.274Z,22.55
2023-04-10T03:19:38.861Z,19.67
2023-04-10T03:22:05.386Z,20.40
2023-04-10T03:24:31.885Z,17.33
2023-04-10T03:26:58.654Z,17.95
2023-04-10T03:29:25.199Z,18.23
2023-04-10T03:31:52.030Z,14.75
2023-04-10T03:34:18.660Z,16.25
2023-04-10T03:36:45.190Z,15.67
2023-04-10T03:39:11.773Z,23.88
2023-04-10T03:41:38.325Z,27.00
2023-04-10T03:44:04.904Z,27.85
2023-04-10T03:46:31.458Z,21.10
2023-04-10T03:48:58.014Z,20.50
2023-04-10T03:51:24.813Z,28.45
2023-04-10T03:53:51.542Z,28.15
2023-04-10T03:56:18.251Z,19.10
2023-04-10T03:58:44.742Z,21.80
2023-04-10T04:01:11.455Z,22.80
2023-04-10T04:03:38.110Z,21.25
2023-04-10T04:06:04.884Z,20.20
2023-04-10T04:08:31.396Z,22.23
2023-04-10T04:10:57.889Z,20.40
2023-04-10T04:13:24.386Z,18.50
2023-04-10T04:15:50.935Z,25.23
2023-04-10T04:18:17.456Z,24.25
2023-04-10T04:20:43.976Z,19.48
2023-04-10T04:23:10.501Z,19.60
2023-04-10T04:25:37.040Z,18.97
2023-04-10T04:28:03.601Z,24.52
2023-04-10T04:30:30.231Z,31.10
2023-04-10T04:32:56.852Z,34.17
2023-04-10T04:35:23.485Z,29.77
2023-04-10T04:37:49.987Z,20.60
2023-04-10T04:40:16.504Z,30.65
2023-04-10T04:42:43.071Z,25.15
2023-04-10T04:45:10.153Z,25.02
2023-04-10T04:47:36.883Z,30.05
2023-04-10T04:50:04.042Z,19.30
2023-04-10T04:52:30.603Z,19.33
2023-04-10T04:54:57.073Z,22.60
2023-04-10T04:57:23.550Z,21.73
2023-04-10T04:59:50.082Z,18.45
2023-04-10T05:02:16.853Z,18.90
2023-04-10T05:04:43.450Z,20.02
2023-04-10T05:07:10.260Z,25.40
2023-04-10T05:09:36.720Z,25.35
2023-04-10T05:12:03.941Z,24.33
2023-04-10T05:14:30.408Z,28.23
2023-04-10T05:16:57.062Z,23.27
2023-04-10T05:19:23.575Z,22.00
2023-04-10T05:21:50.163Z,20.48
2023-04-10T05:24:16.673Z,18.33
2023-04-10T05:26:43.464Z,19.67
2023-04-10T05:29:10.024Z,21.20
2023-04-10T05:31:36.617Z,24.85
2023-04-10T05:34:03.144Z,19.27
2023-04-10T05:36:29.647Z,19.77
2023-04-10T05:38:56.467Z,19.77
2023-04-10T05:41:23.200Z,18.35
2023-04-10T05:43:50.045Z,19.25
2023-04-10T05:46:16.675Z,24.52
2023-04-10T05:48:43.152Z,24.35
2023-04-10T05:51:09.658Z,18.47
2023-04-10T05:53:36.614Z,18.00
2023-04-10T05:56:03.229Z,19.13
2023-04-10T05:58:29.740Z,16.83
2023-04-10T06:00:57.585Z,16.17
2023-04-10T06:03:24.282Z,23.43
2023-04-10T06:05:51.040Z,20.90
2023-04-10T06:08:17.588Z,19.55
2023-04-10T06:10:44.402Z,24.38
2023-04-10T06:13:11.477Z,18.95
2023-04-10T06:15:38.316Z,16.43
2023-04-10T06:18:04.916Z,13.77
2023-04-10T06:20:31.469Z,18.00
2023-04-10T06:22:58.989Z,18.20
2023-04-10T06:25:25.572Z,17.98
2023-04-10T06:27:52.267Z,17.10
2023-04-10T06:30:18.772Z,15.88
2023-04-10T06:32:45.312Z,15.05
2023-04-10T06:35:12.066Z,20.77
2023-04-10T06:37:38.624Z,17.58
2023-04-10T06:40:10.453Z,24.37
2023-04-10T06:42:37.572Z,20.67
2023-04-10T06:45:04.658Z,20.38
2023-04-10T06:47:32.242Z,18.00
2023-04-10T06:49:59.126Z,16.50
2023-04-10T06:52:25.820Z,21.80
2023-04-10T06:54:52.333Z,27.20
2023-04-10T06:57:18.849Z,30.40
2023-04-10T06:59:45.626Z,29.23
2023-04-10T07:02:12.229Z,28.77
2023-04-10T07:04:38.721Z,32.50
2023-04-10T07:07:09.753Z,27.38
2023-04-10T07:09:36.345Z,35.80
2023-04-10T07:12:03.028Z,35.05
2023-04-10T07:14:29.564Z,31.40
2023-04-10T07:16:57.314Z,24.27
2023-04-10T07:19:24.103Z,28.52
2023-04-10T07:21:50.583Z,34.17
2023-04-10T07:24:18.093Z,27.60
2023-04-10T07:26:45.446Z,24.10
2023-04-10T07:29:12.605Z,28.33
2023-04-10T07:31:39.118Z,32.10
2023-04-10T07:34:05.875Z,38.05
2023-04-10T07:36:32.786Z,37.22
2023-04-10T07:38:59.564Z,30.05
2023-04-10T07:41:26.156Z,31.53
2023-04-10T07:43:52.708Z,26.10
2023-04-10T07:46:19.847Z,25.42
2023-04-10T07:48:47.589Z,29.90
2023-04-10T07:51:14.373Z,32.03
2023-04-10T07:53:42.053Z,29.13
2023-04-10T07:56:14.833Z,24.15
2023-04-10T07:58:44.600Z,31.60
2023-04-10T08:01:11.688Z,29.00
2023-04-10T08:03:47.525Z,33.78
2023-04-10T08:06:17.078Z,31.70
2023-04-10T08:08:43.842Z,22.50
2023-04-10T08:11:28.200Z,27.98
2023-04-10T08:13:56.995Z,26.23
2023-04-10T08:16:25.353Z,20.23
2023-04-10T08:18:56.839Z,23.77
2023-04-10T08:21:26.083Z,29.75
2023-04-10T08:24:00.991Z,23.23
2023-04-10T08:26:29.024Z,29.23
2023-04-10T08:28:58.339Z,19.85
2023-04-10T08:31:27.475Z,16.07
2023-04-10T08:33:54.924Z,22.63
2023-04-10T08:36:21.876Z,20.25
2023-04-10T08:38:49.106Z,21.73
2023-04-10T08:41:20.740Z,31.65
2023-04-10T08:43:50.906Z,14.93
2023-04-10T08:46:18.148Z,29.98
2023-04-10T08:49:01.863Z,26.63
2023-04-10T08:51:36.074Z,19.90
2023-04-10T08:54:08.250Z,22.95
2023-04-10T08:56:36.422Z,21.07
2023-04-10T08:59:03.624Z,29.30
2023-04-10T09:01:31.117Z,31.23
2023-04-10T09:03:58.844Z,22.27
2023-04-10T09:06:26.314Z,35.08
2023-04-10T09:08:52.921Z,26.50
2023-04-10T09:11:19.660Z,29.50
2023-04-10T09:13:46.451Z,29.13
2023-04-10T09:16:14.257Z,33.15
2023-04-10T09:18:48.408Z,25.08
2023-04-10T09:21:17.255Z,22.13
2023-04-10T09:23:47.610Z,25.38
2023-04-10T09:26:31.305Z,21.95
2023-04-10T09:29:03.492Z,23.17
2023-04-10T09:31:31.045Z,23.40
2023-04-10T09:34:15.717Z,21.30
2023-04-10T09:36:44.041Z,29.27
2023-04-10T09:39:12.341Z,31.25
2023-04-10T09:41:49.638Z,27.55
2023-04-10T09:44:28.132Z,23.88
2023-04-10T09:46:55.491Z,22.80
2023-04-10T09:49:22.715Z,23.83
2023-04-10T09:51:49.884Z,30.23
2023-04-10T09:54:16.529Z,29.13
2023-04-10T09:56:45.991Z,26.55
2023-04-10T09:59:14.277Z,21.77
2023-04-10T10:01:42.365Z,20.30
2023-04-10T10:04:09.738Z,19.85
2023-04-10T10:06:38.319Z,23.13
2023-04-10T10:09:05.841Z,18.95
2023-04-10T10:11:36.511Z,20.50
2023-04-10T10:14:09.277Z,20.88
2023-04-10T10:16:44.535Z,22.52
2023-04-10T10:19:41.223Z,16.00
2023-04-10T10:22:09.760Z,25.65
2023-04-10T10:24:39.927Z,18.83
2023-04-10T10:27:09.517Z,19.45
2023-04-10T10:29:39.419Z,24.35
2023-04-10T10:32:08.418Z,25.80
2023-04-10T10:34:35.848Z,20.05
2023-04-10T10:37:02.843Z,18.47
2023-04-10T10:39:42.791Z,21.33
2023-04-10T10:42:23.546Z,20.10
2023-04-10T10:45:01.155Z,20.20
2023-04-10T10:47:30.384Z,22.88
2023-04-10T10:50:02.058Z,22.37
2023-04-10T10:52:38.552Z,22.55
2023-04-10T10:55:27.438Z,20.58
2023-04-10T10:57:55.957Z,23.15
2023-04-10T11:00:24.472Z,25.27
2023-04-10T11:03:10.720Z,21.13
2023-04-10T11:06:09.706Z,20.50
2023-04-10T11:08:45.887Z,24.63
2023-04-10T11:11:18.329Z,24.67
2023-04-10T11:13:52.199Z,25.83
2023-04-10T11:16:20.861Z,19.00
2023-04-10T11:18:56.169Z,25.08
2023-04-10T11:21:29.191Z,24.08
2023-04-10T11:23:58.409Z,20.25
2023-04-10T11:26:41.112Z,24.25
2023-04-10T11:29:28.034Z,24.93
2023-04-10T11:31:59.594Z,21.40
2023-04-10T11:34:30.823Z,21.70
2023-04-10T11:36:57.551Z,21.42
2023-04-10T11:39:24.183Z,23.17
2023-04-10T11:41:52.462Z,19.57
2023-04-10T11:44:22.798Z,22.83
2023-04-10T11:46:51.372Z,19.48
2023-04-10T11:49:20.085Z,20.02
2023-04-10T11:51:49.186Z,22.48
2023-04-10T11:54:19.648Z,15.00
2023-04-10T11:57:09.797Z,16.00
2023-04-10T11:59:36.352Z,17.92
2023-04-10T12:02:16.639Z,16.77
2023-04-10T12:04:44.590Z,21.95
2023-04-10T12:07:11.776Z,16.53
2023-04-10T12:09:38.528Z,17.48
2023-04-10T12:12:06.907Z,20.00
2023-04-10T12:14:38.559Z,17.42
2023-04-10T12:17:07.639Z,14.35
2023-04-10T12:19:34.985Z,15.00
2023-04-10T12:22:02.865Z,15.40
2023-04-10T12:24:46.381Z,11.48
2023-04-10T12:27:23.228Z,15.52
2023-04-10T12:29:51.921Z,11.98
2023-04-10T12:32:19.155Z,10.13
2023-04-10T12:34:53.559Z,12.80
2023-04-10T12:37:20.658Z,15.70
2023-04-10T12:39:47.499Z,15.55
2023-04-10T12:42:22.617Z,13.85
2023-04-10T12:44:58.771Z,16.10
2023-04-10T12:47:27.387Z,12.98
2023-04-10T12:50:15.060Z,15.32
2023-04-10T12:52:44.348Z,12.50
2023-04-10T12:55:18.932Z,14.10
2023-04-10T12:57:47.332Z,10.90
2023-04-10T13:00:17.082Z,10.05
2023-04-10T13:02:44.203Z,10.43
2023-04-10T13:05:11.453Z,13.23
2023-04-10T13:07:38.863Z,10.85
2023-04-10T13:10:07.314Z,10.67
2023-04-10T13:12:38.938Z,9.90
2023-04-10T13:15:07.620Z,10.13
2023-04-10T13:17:34.443Z,10.65
2023-04-10T13:20:01.007Z,14.52
2023-04-10T13:22:27.453Z,10.73
2023-04-10T13:24:54.009Z,11.80
2023-04-10T13:27:20.433Z,10.93
2023-04-10T13:29:46.925Z,12.85
2023-04-10T13:32:13.402Z,12.00
2023-04-10T13:34:39.993Z,12.87
2023-04-10T13:37:06.561Z,12.88
2023-04-10T13:39:33.136Z,13.25
2023-04-10T13:41:59.695Z,10.15
2023-04-10T13:44:26.648Z,12.05
2023-04-10T13:46:53.751Z,8.47
2023-04-10T13:49:21.933Z,10.85
2023-04-10T13:51:49.103Z,11.07
2023-04-10T13:54:17.372Z,11.70
2023-04-10T13:56:47.195Z,11.40
2023-04-10T13:59:13.913Z,9.67
2023-04-10T14:01:40.534Z,8.13
2023-04-10T14:04:07.432Z,8.77
2023-04-10T14:06:34.195Z,7.75
2023-04-10T14:09:00.931Z,9.00
2023-04-10T14:11:27.454Z,7.93
2023-04-10T14:13:53.950Z,8.52
2023-04-10T14:16:20.844Z,8.95
2023-04-10T14:18:47.391Z,7.18
2023-04-10T14:21:14.003Z,6.60
2023-04-10T14:23:42.579Z,8.30
2023-04-10T14:26:09.275Z,8.02
2023-04-10T14:28:35.881Z,8.23
2023-04-10T14:31:02.731Z,9.55
2023-04-10T14:33:29.566Z,9.15
2023-04-10T14:35:56.136Z,6.90
2023-04-10T14:38:22.696Z,9.00
2023-04-10T14:40:50.304Z,7.90
2023-04-10T14:43:19.330Z,9.02
2023-04-10T14:45:46.055Z,8.73
2023-04-10T14:48:13.324Z,7.60
2023-04-10T14:50:40.402Z,7.82
2023-04-10T14:53:09.607Z,7.03
2023-04-10T14:55:37.210Z,6.80
2023-04-10T14:58:04.645Z,6.63
2023-04-10T15:00:32.992Z,10.20
2023-04-10T15:02:59.769Z,9.23
2023-04-10T15:05:27.568Z,7.43
2023-04-10T15:07:54.844Z,6.85
2023-04-10T15:10:21.495Z,9.43
2023-04-10T15:12:47.960Z,8.33
2023-04-10T15:15:14.479Z,6.85
2023-04-10T15:17:41.343Z,8.85
2023-04-10T15:20:08.212Z,7.40
2023-04-10T15:22:35.842Z,7.00
2023-04-10T15:25:02.489Z,7.10
2023-04-10T15:27:29.057Z,5.95
2023-04-10T15:29:55.608Z,5.65
2023-04-10T15:32:22.340Z,7.47
2023-04-10T15:34:48.922Z,6.22
2023-04-10T15:37:15.552Z,6.63
2023-04-10T15:39:42.261Z,5.45
2023-04-10T15:42:08.884Z,5.43
2023-04-10T15:44:35.413Z,7.53
2023-04-10T15:47:02.032Z,6.93
2023-04-10T15:49:36.974Z,6.77
2023-04-10T15:52:05.959Z,7.22
2023-04-10T15:54:35.671Z,6.22
2023-04-10T15:57:02.733Z,5.45
2023-04-10T15:59:29.490Z,5.22
2023-04-10T16:01:56.264Z,5.57
2023-04-10T16:04:23.311Z,8.50
2023-04-10T16:06:50.559Z,8.77
2023-04-10T16:09:24.871Z,7.32
2023-04-10T16:11:52.926Z,8.15
2023-04-10T16:14:19.690Z,6.50
2023-04-10T16:16:46.537Z,5.80
2023-04-10T16:19:13.191Z,5.22
2023-04-10T16:21:40.061Z,5.70
2023-04-10T16:24:06.907Z,5.88
2023-04-10T16:26:33.367Z,6.27
2023-04-10T16:28:59.891Z,7.07
2023-04-10T16:31:26.616Z,5.70
2023-04-10T16:33:53.214Z,5.40
2023-04-10T16:36:19.811Z,6.20
2023-04-10T16:38:49.663Z,6.40
2023-04-10T16:41:20.980Z,7.70
2023-04-10T16:43:47.987Z,6.72
2023-04-10T16:46:14.734Z,5.85
2023-04-10T16:48:41.495Z,6.22
2023-04-10T16:51:15.098Z,6.27
2023-04-10T16:53:41.577Z,6.70
2023-04-10T16:56:08.358Z,6.07
2023-04-10T16:58:36.769Z,6.22
2023-04-10T17:01:26.300Z,7.00
2023-04-10T17:03:54.430Z,6.43
2023-04-10T17:06:21.143Z,6.38
2023-04-10T17:08:47.967Z,6.65
2023-04-10T17:11:14.623Z,6.53
2023-04-10T17:13:41.447Z,6.30
2023-04-10T17:16:09.092Z,6.53
2023-04-10T17:18:35.679Z,5.85
2023-04-10T17:21:02.193Z,6.18
2023-04-10T17:23:29.250Z,6.38
2023-04-10T17:25:55.670Z,6.22
2023-04-10T17:28:22.257Z,5.50
2023-04-10T17:30:48.825Z,6.35
2023-04-10T17:33:15.363Z,6.78
2023-04-10T17:35:42.441Z,6.65
2023-04-10T17:38:09.026Z,6.22
2023-04-10T17:40:37.197Z,6.40
2023-04-10T17:43:03.967Z,6.28
2023-04-10T17:45:30.444Z,6.28
2023-04-10T17:47:56.967Z,5.82
2023-04-10T17:50:23.556Z,5.90
2023-04-10T17:52:50.113Z,6.37
2023-04-10T17:55:20.638Z,6.88
2023-04-10T17:57:48.765Z,8.10
2023-04-10T18:00:18.146Z,6.90
2023-04-10T18:02:46.016Z,7.15
2023-04-10T18:05:12.796Z,5.67
2023-04-10T18:07:39.762Z,5.63
2023-04-10T18:10:09.824Z,8.20
2023-04-10T18:12:37.619Z,8.23
2023-04-10T18:15:04.673Z,8.75
2023-04-10T18:17:31.187Z,6.97
2023-04-10T18:19:57.790Z,7.57
2023-04-10T18:22:24.494Z,7.35
2023-04-10T18:24:51.071Z,7.72
2023-04-10T18:27:17.602Z,8.45
2023-04-10T18:29:45.191Z,6.53
2023-04-10T18:32:11.694Z,6.78
2023-04-10T18:34:38.652Z,7.30
2023-04-10T18:37:05.752Z,6.50
2023-04-10T18:39:33.341Z,7.07
2023-04-10T18:42:02.756Z,7.10
2023-04-10T18:44:30.378Z,5.80
2023-04-10T18:47:04.175Z,10.85
2023-04-10T18:49:31.755Z,12.30
2023-04-10T18:51:58.306Z,7.40
2023-04-10T18:54:28.688Z,10.83
2023-04-10T18:56:56.604Z,10.77
2023-04-10T18:59:23.495Z,8.57
2023-04-10T19:01:50.095Z,12.00
2023-04-10T19:04:16.849Z,7.20
2023-04-10T19:06:46.098Z,13.70
2023-04-10T19:09:13.874Z,18.92
2023-04-10T19:11:40.778Z,15.80
2023-04-10T19:14:07.389Z,12.95
2023-04-10T19:16:34.226Z,14.57
2023-04-10T19:19:01.663Z,13.90
2023-04-10T19:21:28.491Z,13.57
2023-04-10T19:23:56.031Z,14.02
2023-04-10T19:26:22.960Z,16.33
2023-04-10T19:28:49.640Z,17.45
2023-04-10T19:31:18.243Z,14.50
2023-04-10T19:33:44.999Z,16.02
2023-04-10T19:36:11.566Z,16.20
2023-04-10T19:38:40.813Z,12.45
2023-04-10T19:41:15.160Z,16.77
2023-04-10T19:43:41.991Z,21.60
2023-04-10T19:46:21.004Z,13.10
2023-04-10T19:48:48.755Z,16.05
2023-04-10T19:51:15.912Z,17.83
2023-04-10T19:53:42.567Z,16.48
2023-04-10T19:56:09.350Z,12.13
2023-04-10T19:58:40.913Z,13.23
2023-04-10T20:01:11.872Z,11.82
2023-04-10T20:03:39.520Z,14.25
2023-04-10T20:06:10.376Z,13.02
2023-04-10T20:08:37.021Z,12.57
2023-04-10T20:11:06.229Z,12.73
2023-04-10T20:13:36.162Z,15.05
2023-04-10T20:16:03.230Z,15.35
2023-04-10T20:18:31.465Z,12.60
2023-04-10T20:20:57.984Z,15.97
2023-04-10T20:23:24.523Z,13.13
2023-04-10T20:25:51.223Z,13.70
2023-04-10T20:28:17.820Z,13.35
2023-04-10T20:30:44.362Z,13.95
2023-04-10T20:33:11.338Z,11.47
2023-04-10T20:35:38.150Z,11.55
2023-04-10T20:38:04.678Z,14.20
2023-04-10T20:40:31.491Z,12.15
2023-04-10T20:42:58.036Z,12.32
2023-04-10T20:45:24.656Z,12.20
2023-04-10T20:47:51.241Z,14.70
2023-04-10T20:50:18.509Z,15.18
2023-04-10T20:52:45.031Z,14.35
2023-04-10T20:55:11.661Z,16.27
2023-04-10T20:57:38.207Z,11.90
2023-04-10T21:00:05.432Z,11.80
2023-04-10T21:02:32.124Z,12.73
2023-04-10T21:04:59.719Z,12.38
2023-04-10T21:07:26.222Z,13.50
2023-04-10T21:09:52.823Z,10.57
2023-04-10T21:12:19.361Z,12.82
2023-04-10T21:14:45.965Z,13.10
2023-04-10T21:17:12.499Z,12.10
2023-04-10T21:19:39.025Z,13.25
2023-04-10T21:22:05.551Z,12.93
2023-04-10T21:24:32.100Z,13.25
2023-04-10T21:26:58.527Z,13.50
2023-04-10T21:29:25.307Z,12.80
2023-04-10T21:31:51.850Z,13.20
2023-04-10T21:34:18.548Z,13.17
2023-04-10T21:36:45.326Z,12.85
2023-04-10T21:39:11.903Z,14.02
2023-04-10T21:41:39.393Z,11.90
2023-04-10T21:44:06.595Z,13.80
2023-04-10T21:46:33.666Z,9.30
2023-04-10T21:49:00.514Z,13.23
2023-04-10T21:51:27.553Z,14.88
2023-04-10T21:53:54.319Z,12.15
2023-04-10T21:56:20.974Z,14.85
2023-04-10T21:58:47.495Z,13.83
2023-04-10T22:01:13.965Z,14.85
2023-04-10T22:03:40.875Z,14.55
2023-04-10T22:06:08.918Z,8.10
2023-04-10T22:08:38.130Z,10.77
2023-04-10T22:11:05.969Z,13.73
2023-04-10T22:13:32.906Z,11.32
2023-04-10T22:16:01.885Z,13.98
2023-04-10T22:18:28.732Z,12.57
2023-04-10T22:20:55.342Z,12.65
2023-04-10T22:23:21.891Z,12.13
2023-04-10T22:25:48.426Z,12.57
2023-04-10T22:28:14.962Z,13.57
2023-04-10T22:30:41.751Z,15.13
2023-04-10T22:33:08.339Z,15.07
2023-04-10T22:35:34.828Z,13.67
2023-04-10T22:38:03.777Z,14.85
2023-04-10T22:40:30.385Z,16.95
2023-04-10T22:42:56.895Z,14.50
2023-04-10T22:45:23.398Z,14.85
2023-04-10T22:47:49.945Z,15.00
2023-04-10T22:50:16.403Z,15.05
2023-04-10T22:52:42.977Z,12.07
2023-04-10T22:55:09.836Z,14.77
2023-04-10T22:57:36.328Z,14.70
2023-04-10T23:00:03.639Z,15.73
2023-04-10T23:02:31.392Z,17.70
2023-04-10T23:04:58.146Z,16.70
2023-04-10T23:07:25.758Z,15.18
2023-04-10T23:09:52.319Z,14.88
2023-04-10T23:12:19.912Z,20.23
2023-04-10T23:14:46.358Z,16.40
2023-04-10T23:17:12.894Z,15.32
2023-04-10T23:19:39.411Z,18.05
2023-04-10T23:22:05.960Z,14.57
2023-04-10T23:24:32.515Z,13.30
2023-04-10T23:26:59.045Z,12.52
2023-04-10T23:29:25.758Z,17.75
2023-04-10T23:31:52.239Z,18.25
2023-04-10T23:34:20.771Z,16.10
2023-04-10T23:36:47.242Z,16.87
2023-04-10T23:39:13.831Z,15.07
2023-04-10T23:41:40.303Z,15.88
2023-04-10T23:44:06.836Z,16.20
2023-04-10T23:46:33.484Z,15.40
2023-04-10T23:49:00.126Z,16.87
2023-04-10T23:51:27.948Z,16.40
2023-04-10T23:53:54.436Z,15.75
2023-04-10T23:56:21.577Z,15.35
2023-04-10T23:58:48.070Z,16.98
